sensor_id;sensor_type;location;lat;lon;timestamp;P1;durP1;ratioP1;P2;durP2;ratioP2
78308;SDS011;67566;42.022;21.356;2023-05-16T00:01:07;21.15;;;13.60;;
78308;SDS011;67566;42.022;21.356;2023-05-16T00:03:33;20.73;;;11.95;;
78308;SDS011;67566;42.022;21.356;2023-05-16T00:05:59;21.50;;;12.43;;
78308;SDS011;67566;42.022;21.356;2023-05-16T00:08:26;15.27;;;11.27;;
78308;SDS011;67566;42.022;21.356;2023-05-16T00:10:52;14.98;;;10.35;;
78308;SDS011;67566;42.022;21.356;2023-05-16T00:13:18;13.45;;;9.13;;
78308;SDS011;67566;42.022;21.356;2023-05-16T00:15:52;11.73;;;8.50;;
78308;SDS011;67566;42.022;21.356;2023-05-16T00:18:20;10.60;;;8.18;;
78308;SDS011;67566;42.022;21.356;2023-05-16T00:20:50;10.88;;;7.93;;
78308;SDS011;67566;42.022;21.356;2023-05-16T00:23:17;14.80;;;8.52;;
78308;SDS011;67566;42.022;21.356;2023-05-16T00:25:42;10.75;;;7.63;;
78308;SDS011;67566;42.022;21.356;2023-05-16T00:28:09;12.90;;;7.97;;
78308;SDS011;67566;42.022;21.356;2023-05-16T00:30:34;16.13;;;9.52;;
78308;SDS011;67566;42.022;21.356;2023-05-16T00:33:00;13.07;;;8.82;;
78308;SDS011;67566;42.022;21.356;2023-05-16T00:35:26;14.77;;;8.82;;
78308;SDS011;67566;42.022;21.356;2023-05-16T00:37:52;15.77;;;9.13;;
78308;SDS011;67566;42.022;21.356;2023-05-16T00:40:17;11.13;;;9.15;;
78308;SDS011;67566;42.022;21.356;2023-05-16T00:42:43;13.85;;;9.18;;
78308;SDS011;67566;42.022;21.356;2023-05-16T00:45:08;15.05;;;9.55;;
78308;SDS011;67566;42.022;21.356;2023-05-16T00:47:34;14.32;;;8.95;;
78308;SDS011;67566;42.022;21.356;2023-05-16T00:50:00;11.38;;;9.18;;
78308;SDS011;67566;42.022;21.356;2023-05-16T00:52:27;14.98;;;9.63;;
78308;SDS011;67566;42.022;21.356;2023-05-16T00:54:53;10.80;;;8.75;;
78308;SDS011;67566;42.022;21.356;2023-05-16T00:57:19;10.07;;;8.02;;
78308;SDS011;67566;42.022;21.356;2023-05-16T00:59:45;12.85;;;8.35;;
78308;SDS011;67566;42.022;21.356;2023-05-16T01:02:11;11.50;;;8.07;;
78308;SDS011;67566;42.022;21.356;2023-05-16T01:04:38;14.07;;;8.00;;
78308;SDS011;67566;42.022;21.356;2023-05-16T01:07:04;11.18;;;8.32;;
78308;SDS011;67566;42.022;21.356;2023-05-16T01:09:30;14.23;;;8.73;;
78308;SDS011;67566;42.022;21.356;2023-05-16T01:17:27;12.52;;;7.88;;
78308;SDS011;67566;42.022;21.356;2023-05-16T01:20:03;11.25;;;8.07;;
78308;SDS011;67566;42.022;21.356;2023-05-16T01:28:00;12.25;;;8.35;;
78308;SDS011;67566;42.022;21.356;2023-05-16T01:30:31;15.18;;;8.82;;
78308;SDS011;67566;42.022;21.356;2023-05-16T01:32:59;10.85;;;8.07;;
78308;SDS011;67566;42.022;21.356;2023-05-16T01:35:25;12.43;;;8.85;;
78308;SDS011;67566;42.022;21.356;2023-05-16T01:37:53;14.77;;;8.50;;
78308;SDS011;67566;42.022;21.356;2023-05-16T01:40:34;12.40;;;8.02;;
78308;SDS011;67566;42.022;21.356;2023-05-16T01:43:07;11.68;;;8.48;;
78308;SDS011;67566;42.022;21.356;2023-05-16T01:45:38;12.70;;;8.73;;
78308;SDS011;67566;42.022;21.356;2023-05-16T01:48:20;12.13;;;9.00;;
78308;SDS011;67566;42.022;21.356;2023-05-16T01:50:51;11.63;;;8.68;;
78308;SDS011;67566;42.022;21.356;2023-05-16T01:53:27;11.48;;;8.00;;
78308;SDS011;67566;42.022;21.356;2023-05-16T01:58:25;12.45;;;8.20;;
78308;SDS011;67566;42.022;21.356;2023-05-16T02:00:53;10.30;;;7.75;;
78308;SDS011;67566;42.022;21.356;2023-05-16T02:03:18;14.23;;;8.88;;
78308;SDS011;67566;42.022;21.356;2023-05-16T02:05:44;12.70;;;8.48;;
78308;SDS011;67566;42.022;21.356;2023-05-16T02:08:09;9.35;;;8.35;;
78308;SDS011;67566;42.022;21.356;2023-05-16T02:10:35;11.68;;;8.82;;
78308;SDS011;67566;42.022;21.356;2023-05-16T02:13:01;12.65;;;7.68;;
78308;SDS011;67566;42.022;21.356;2023-05-16T02:15:26;17.02;;;8.57;;
78308;SDS011;67566;42.022;21.356;2023-05-16T02:17:52;10.73;;;9.02;;
78308;SDS011;67566;42.022;21.356;2023-05-16T02:20:18;12.55;;;8.20;;
78308;SDS011;67566;42.022;21.356;2023-05-16T02:22:43;10.48;;;7.72;;
78308;SDS011;67566;42.022;21.356;2023-05-16T02:25:12;13.15;;;8.68;;
78308;SDS011;67566;42.022;21.356;2023-05-16T02:27:39;14.90;;;9.07;;
78308;SDS011;67566;42.022;21.356;2023-05-16T02:32:48;12.35;;;8.60;;
78308;SDS011;67566;42.022;21.356;2023-05-16T02:35:13;16.67;;;8.60;;
78308;SDS011;67566;42.022;21.356;2023-05-16T02:37:40;15.00;;;8.23;;
78308;SDS011;67566;42.022;21.356;2023-05-16T02:40:06;11.40;;;8.52;;
78308;SDS011;67566;42.022;21.356;2023-05-16T02:42:33;13.43;;;9.23;;
78308;SDS011;67566;42.022;21.356;2023-05-16T02:44:58;11.63;;;8.45;;
78308;SDS011;67566;42.022;21.356;2023-05-16T02:47:24;12.70;;;9.13;;
78308;SDS011;67566;42.022;21.356;2023-05-16T02:49:50;12.52;;;9.48;;
78308;SDS011;67566;42.022;21.356;2023-05-16T02:52:18;12.23;;;9.27;;
78308;SDS011;67566;42.022;21.356;2023-05-16T02:54:43;15.70;;;9.98;;
78308;SDS011;67566;42.022;21.356;2023-05-16T02:57:09;12.95;;;8.77;;
78308;SDS011;67566;42.022;21.356;2023-05-16T02:59:35;12.65;;;10.10;;
78308;SDS011;67566;42.022;21.356;2023-05-16T03:02:00;14.98;;;10.60;;
78308;SDS011;67566;42.022;21.356;2023-05-16T03:04:26;14.15;;;11.13;;
78308;SDS011;67566;42.022;21.356;2023-05-16T03:06:52;13.80;;;10.60;;
78308;SDS011;67566;42.022;21.356;2023-05-16T03:09:17;18.48;;;11.55;;
78308;SDS011;67566;42.022;21.356;2023-05-16T03:11:44;18.52;;;10.35;;
78308;SDS011;67566;42.022;21.356;2023-05-16T03:14:10;13.32;;;10.88;;
78308;SDS011;67566;42.022;21.356;2023-05-16T03:16:36;17.67;;;11.57;;
78308;SDS011;67566;42.022;21.356;2023-05-16T03:19:02;12.88;;;10.57;;
78308;SDS011;67566;42.022;21.356;2023-05-16T03:21:29;18.42;;;11.23;;
78308;SDS011;67566;42.022;21.356;2023-05-16T03:23:55;15.45;;;11.77;;
78308;SDS011;67566;42.022;21.356;2023-05-16T03:26:22;16.08;;;12.27;;
78308;SDS011;67566;42.022;21.356;2023-05-16T03:28:50;16.13;;;11.68;;
78308;SDS011;67566;42.022;21.356;2023-05-16T03:31:16;17.35;;;12.23;;
78308;SDS011;67566;42.022;21.356;2023-05-16T03:33:42;15.18;;;11.27;;
78308;SDS011;67566;42.022;21.356;2023-05-16T03:36:07;15.40;;;10.60;;
78308;SDS011;67566;42.022;21.356;2023-05-16T03:38:33;15.52;;;11.43;;
78308;SDS011;67566;42.022;21.356;2023-05-16T03:40:59;16.23;;;11.63;;
78308;SDS011;67566;42.022;21.356;2023-05-16T03:43:25;18.83;;;11.65;;
78308;SDS011;67566;42.022;21.356;2023-05-16T03:45:50;16.42;;;11.60;;
78308;SDS011;67566;42.022;21.356;2023-05-16T03:48:16;15.82;;;10.27;;
78308;SDS011;67566;42.022;21.356;2023-05-16T03:50:41;15.50;;;11.82;;
78308;SDS011;67566;42.022;21.356;2023-05-16T03:53:07;17.17;;;11.10;;
78308;SDS011;67566;42.022;21.356;2023-05-16T03:55:33;16.83;;;10.15;;
78308;SDS011;67566;42.022;21.356;2023-05-16T03:57:59;13.05;;;10.38;;
78308;SDS011;67566;42.022;21.356;2023-05-16T04:00:24;23.73;;;11.32;;
78308;SDS011;67566;42.022;21.356;2023-05-16T04:02:50;13.20;;;10.88;;
78308;SDS011;67566;42.022;21.356;2023-05-16T04:05:16;17.35;;;11.55;;
78308;SDS011;67566;42.022;21.356;2023-05-16T04:07:42;14.10;;;9.98;;
78308;SDS011;67566;42.022;21.356;2023-05-16T04:10:07;13.50;;;8.95;;
78308;SDS011;67566;42.022;21.356;2023-05-16T04:12:33;14.50;;;9.18;;
78308;SDS011;67566;42.022;21.356;2023-05-16T04:14:59;13.02;;;9.68;;
78308;SDS011;67566;42.022;21.356;2023-05-16T04:17:25;11.70;;;9.05;;
78308;SDS011;67566;42.022;21.356;2023-05-16T04:19:50;15.98;;;10.40;;
78308;SDS011;67566;42.022;21.356;2023-05-16T04:22:16;14.38;;;9.07;;
78308;SDS011;67566;42.022;21.356;2023-05-16T04:24:41;18.10;;;10.65;;
78308;SDS011;67566;42.022;21.356;2023-05-16T04:27:07;13.95;;;10.27;;
78308;SDS011;67566;42.022;21.356;2023-05-16T04:29:36;16.63;;;10.25;;
78308;SDS011;67566;42.022;21.356;2023-05-16T04:32:01;15.95;;;10.13;;
78308;SDS011;67566;42.022;21.356;2023-05-16T04:34:27;13.75;;;9.20;;
78308;SDS011;67566;42.022;21.356;2023-05-16T04:36:53;14.68;;;11.25;;
78308;SDS011;67566;42.022;21.356;2023-05-16T04:39:19;13.30;;;11.13;;
78308;SDS011;67566;42.022;21.356;2023-05-16T04:41:45;14.57;;;9.82;;
78308;SDS011;67566;42.022;21.356;2023-05-16T04:44:10;13.77;;;10.85;;
78308;SDS011;67566;42.022;21.356;2023-05-16T04:46:36;15.45;;;10.40;;
78308;SDS011;67566;42.022;21.356;2023-05-16T04:49:01;17.25;;;10.75;;
78308;SDS011;67566;42.022;21.356;2023-05-16T04:51:27;13.63;;;9.93;;
78308;SDS011;67566;42.022;21.356;2023-05-16T04:53:52;13.43;;;10.48;;
78308;SDS011;67566;42.022;21.356;2023-05-16T04:56:19;15.40;;;11.43;;
78308;SDS011;67566;42.022;21.356;2023-05-16T04:58:44;16.40;;;11.27;;
78308;SDS011;67566;42.022;21.356;2023-05-16T05:01:10;19.25;;;11.27;;
78308;SDS011;67566;42.022;21.356;2023-05-16T05:03:36;15.80;;;11.05;;
78308;SDS011;67566;42.022;21.356;2023-05-16T05:06:01;14.35;;;10.63;;
78308;SDS011;67566;42.022;21.356;2023-05-16T05:08:27;14.00;;;10.75;;
78308;SDS011;67566;42.022;21.356;2023-05-16T05:10:56;12.48;;;10.05;;
78308;SDS011;67566;42.022;21.356;2023-05-16T05:13:21;18.73;;;11.80;;
78308;SDS011;67566;42.022;21.356;2023-05-16T05:15:48;19.48;;;12.50;;
78308;SDS011;67566;42.022;21.356;2023-05-16T05:18:14;12.38;;;9.43;;
78308;SDS011;67566;42.022;21.356;2023-05-16T05:20:40;17.00;;;10.10;;
78308;SDS011;67566;42.022;21.356;2023-05-16T05:23:06;14.48;;;10.90;;
78308;SDS011;67566;42.022;21.356;2023-05-16T05:25:31;14.75;;;10.52;;
78308;SDS011;67566;42.022;21.356;2023-05-16T05:27:57;17.80;;;9.48;;
78308;SDS011;67566;42.022;21.356;2023-05-16T05:30:23;15.15;;;11.68;;
78308;SDS011;67566;42.022;21.356;2023-05-16T05:32:48;15.07;;;11.50;;
78308;SDS011;67566;42.022;21.356;2023-05-16T05:35:14;19.08;;;12.25;;
78308;SDS011;67566;42.022;21.356;2023-05-16T05:37:39;21.02;;;12.85;;
78308;SDS011;67566;42.022;21.356;2023-05-16T05:40:05;17.48;;;11.20;;
78308;SDS011;67566;42.022;21.356;2023-05-16T05:42:31;17.23;;;10.63;;
78308;SDS011;67566;42.022;21.356;2023-05-16T05:44:57;18.67;;;11.00;;
78308;SDS011;67566;42.022;21.356;2023-05-16T05:47:23;21.23;;;11.60;;
78308;SDS011;67566;42.022;21.356;2023-05-16T05:49:49;20.52;;;11.98;;
78308;SDS011;67566;42.022;21.356;2023-05-16T05:52:14;16.75;;;11.77;;
78308;SDS011;67566;42.022;21.356;2023-05-16T05:54:40;15.32;;;11.23;;
78308;SDS011;67566;42.022;21.356;2023-05-16T05:57:05;15.95;;;10.60;;
78308;SDS011;67566;42.022;21.356;2023-05-16T05:59:31;17.02;;;10.68;;
78308;SDS011;67566;42.022;21.356;2023-05-16T06:01:56;12.15;;;10.05;;
78308;SDS011;67566;42.022;21.356;2023-05-16T06:04:22;14.02;;;11.00;;
78308;SDS011;67566;42.022;21.356;2023-05-16T06:06:48;20.10;;;10.73;;
78308;SDS011;67566;42.022;21.356;2023-05-16T06:09:13;16.40;;;10.65;;
78308;SDS011;67566;42.022;21.356;2023-05-16T06:11:39;15.07;;;9.52;;
78308;SDS011;67566;42.022;21.356;2023-05-16T06:14:05;14.90;;;9.30;;
78308;SDS011;67566;42.022;21.356;2023-05-16T06:16:31;13.48;;;9.52;;
78308;SDS011;67566;42.022;21.356;2023-05-16T06:18:57;16.83;;;9.38;;
78308;SDS011;67566;42.022;21.356;2023-05-16T06:21:23;18.77;;;9.85;;
78308;SDS011;67566;42.022;21.356;2023-05-16T06:23:48;13.45;;;9.88;;
78308;SDS011;67566;42.022;21.356;2023-05-16T06:26:14;32.08;;;11.75;;
78308;SDS011;67566;42.022;21.356;2023-05-16T06:28:39;16.33;;;10.02;;
78308;SDS011;67566;42.022;21.356;2023-05-16T06:31:05;10.90;;;8.32;;
78308;SDS011;67566;42.022;21.356;2023-05-16T06:33:30;15.80;;;9.00;;
78308;SDS011;67566;42.022;21.356;2023-05-16T06:35:56;13.05;;;9.23;;
78308;SDS011;67566;42.022;21.356;2023-05-16T06:38:21;17.40;;;9.18;;
78308;SDS011;67566;42.022;21.356;2023-05-16T06:40:47;12.50;;;8.43;;
78308;SDS011;67566;42.022;21.356;2023-05-16T06:43:13;14.05;;;8.23;;
78308;SDS011;67566;42.022;21.356;2023-05-16T06:45:38;14.73;;;8.98;;
78308;SDS011;67566;42.022;21.356;2023-05-16T06:48:05;10.82;;;9.10;;
78308;SDS011;67566;42.022;21.356;2023-05-16T06:50:32;16.38;;;9.13;;
78308;SDS011;67566;42.022;21.356;2023-05-16T06:52:59;12.93;;;8.93;;
78308;SDS011;67566;42.022;21.356;2023-05-16T06:55:25;13.27;;;9.70;;
78308;SDS011;67566;42.022;21.356;2023-05-16T06:57:50;12.60;;;9.23;;
78308;SDS011;67566;42.022;21.356;2023-05-16T07:00:16;18.98;;;10.13;;
78308;SDS011;67566;42.022;21.356;2023-05-16T07:02:41;14.98;;;8.80;;
78308;SDS011;67566;42.022;21.356;2023-05-16T07:05:07;9.55;;;7.88;;
78308;SDS011;67566;42.022;21.356;2023-05-16T07:07:33;15.73;;;9.70;;
78308;SDS011;67566;42.022;21.356;2023-05-16T07:09:58;12.20;;;7.93;;
78308;SDS011;67566;42.022;21.356;2023-05-16T07:12:24;17.55;;;10.05;;
78308;SDS011;67566;42.022;21.356;2023-05-16T07:14:50;18.55;;;10.65;;
78308;SDS011;67566;42.022;21.356;2023-05-16T07:17:16;17.92;;;10.57;;
78308;SDS011;67566;42.022;21.356;2023-05-16T07:19:41;12.90;;;10.40;;
78308;SDS011;67566;42.022;21.356;2023-05-16T07:22:07;14.80;;;10.57;;
78308;SDS011;67566;42.022;21.356;2023-05-16T07:24:32;14.70;;;10.13;;
78308;SDS011;67566;42.022;21.356;2023-05-16T07:26:58;17.30;;;11.20;;
78308;SDS011;67566;42.022;21.356;2023-05-16T07:29:23;12.73;;;9.93;;
78308;SDS011;67566;42.022;21.356;2023-05-16T07:31:49;14.60;;;9.85;;
78308;SDS011;67566;42.022;21.356;2023-05-16T07:34:15;12.32;;;9.52;;
78308;SDS011;67566;42.022;21.356;2023-05-16T07:36:41;14.30;;;9.75;;
78308;SDS011;67566;42.022;21.356;2023-05-16T07:39:06;17.20;;;10.10;;
78308;SDS011;67566;42.022;21.356;2023-05-16T07:41:32;18.55;;;11.73;;
78308;SDS011;67566;42.022;21.356;2023-05-16T07:43:57;18.98;;;11.73;;
78308;SDS011;67566;42.022;21.356;2023-05-16T07:46:22;18.73;;;11.88;;
78308;SDS011;67566;42.022;21.356;2023-05-16T07:48:48;15.02;;;10.60;;
78308;SDS011;67566;42.022;21.356;2023-05-16T07:51:14;16.00;;;10.13;;
78308;SDS011;67566;42.022;21.356;2023-05-16T07:53:39;17.13;;;9.75;;
78308;SDS011;67566;42.022;21.356;2023-05-16T07:56:06;18.42;;;10.85;;
78308;SDS011;67566;42.022;21.356;2023-05-16T07:58:32;21.80;;;10.70;;
78308;SDS011;67566;42.022;21.356;2023-05-16T08:00:57;16.60;;;10.45;;
78308;SDS011;67566;42.022;21.356;2023-05-16T08:03:23;18.38;;;10.70;;
78308;SDS011;67566;42.022;21.356;2023-05-16T08:05:48;13.10;;;10.35;;
78308;SDS011;67566;42.022;21.356;2023-05-16T08:08:14;17.73;;;11.38;;
78308;SDS011;67566;42.022;21.356;2023-05-16T08:10:40;10.93;;;8.63;;
78308;SDS011;67566;42.022;21.356;2023-05-16T08:13:05;17.13;;;11.05;;
78308;SDS011;67566;42.022;21.356;2023-05-16T08:15:31;16.10;;;10.85;;
78308;SDS011;67566;42.022;21.356;2023-05-16T08:17:57;16.65;;;10.40;;
78308;SDS011;67566;42.022;21.356;2023-05-16T08:20:23;16.98;;;10.43;;
78308;SDS011;67566;42.022;21.356;2023-05-16T08:22:49;18.42;;;10.90;;
78308;SDS011;67566;42.022;21.356;2023-05-16T08:25:35;18.00;;;10.63;;
78308;SDS011;67566;42.022;21.356;2023-05-16T08:28:00;14.55;;;9.30;;
78308;SDS011;67566;42.022;21.356;2023-05-16T08:30:26;12.85;;;9.50;;
78308;SDS011;67566;42.022;21.356;2023-05-16T08:32:52;12.85;;;9.52;;
78308;SDS011;67566;42.022;21.356;2023-05-16T08:35:18;13.73;;;10.02;;
78308;SDS011;67566;42.022;21.356;2023-05-16T08:37:43;20.85;;;9.73;;
78308;SDS011;67566;42.022;21.356;2023-05-16T08:40:09;18.27;;;9.63;;
78308;SDS011;67566;42.022;21.356;2023-05-16T08:42:35;16.88;;;10.70;;
78308;SDS011;67566;42.022;21.356;2023-05-16T08:45:02;11.95;;;8.45;;
78308;SDS011;67566;42.022;21.356;2023-05-16T08:47:29;14.57;;;9.35;;
78308;SDS011;67566;42.022;21.356;2023-05-16T08:49:56;13.13;;;9.10;;
78308;SDS011;67566;42.022;21.356;2023-05-16T08:52:22;12.27;;;9.18;;
78308;SDS011;67566;42.022;21.356;2023-05-16T08:54:55;10.43;;;7.53;;
78308;SDS011;67566;42.022;21.356;2023-05-16T08:57:23;15.07;;;9.93;;
78308;SDS011;67566;42.022;21.356;2023-05-16T08:59:49;12.02;;;8.63;;
78308;SDS011;67566;42.022;21.356;2023-05-16T09:02:18;15.13;;;9.60;;
78308;SDS011;67566;42.022;21.356;2023-05-16T09:04:46;14.55;;;9.13;;
78308;SDS011;67566;42.022;21.356;2023-05-16T09:07:12;14.98;;;9.23;;
78308;SDS011;67566;42.022;21.356;2023-05-16T09:09:38;14.73;;;9.98;;
78308;SDS011;67566;42.022;21.356;2023-05-16T09:12:03;18.77;;;10.63;;
78308;SDS011;67566;42.022;21.356;2023-05-16T09:14:29;16.60;;;10.20;;
78308;SDS011;67566;42.022;21.356;2023-05-16T09:17:07;18.65;;;10.52;;
78308;SDS011;67566;42.022;21.356;2023-05-16T09:19:40;22.35;;;13.55;;
78308;SDS011;67566;42.022;21.356;2023-05-16T09:22:12;18.30;;;9.85;;
78308;SDS011;67566;42.022;21.356;2023-05-16T09:24:42;15.45;;;9.38;;
78308;SDS011;67566;42.022;21.356;2023-05-16T09:29:34;13.45;;;9.35;;
78308;SDS011;67566;42.022;21.356;2023-05-16T09:32:03;16.73;;;9.75;;
78308;SDS011;67566;42.022;21.356;2023-05-16T09:34:36;13.93;;;9.18;;
78308;SDS011;67566;42.022;21.356;2023-05-16T09:37:03;20.15;;;12.73;;
78308;SDS011;67566;42.022;21.356;2023-05-16T09:39:28;24.85;;;15.25;;
78308;SDS011;67566;42.022;21.356;2023-05-16T09:41:54;26.98;;;15.52;;
78308;SDS011;67566;42.022;21.356;2023-05-16T09:44:20;26.00;;;15.43;;
78308;SDS011;67566;42.022;21.356;2023-05-16T09:46:45;23.73;;;15.45;;
78308;SDS011;67566;42.022;21.356;2023-05-16T09:49:11;25.92;;;14.90;;
78308;SDS011;67566;42.022;21.356;2023-05-16T09:51:38;25.00;;;16.40;;
78308;SDS011;67566;42.022;21.356;2023-05-16T09:54:08;20.05;;;15.02;;
78308;SDS011;67566;42.022;21.356;2023-05-16T09:56:33;19.55;;;15.35;;
78308;SDS011;67566;42.022;21.356;2023-05-16T09:59:13;26.38;;;17.40;;
78308;SDS011;67566;42.022;21.356;2023-05-16T10:01:39;25.05;;;15.77;;
78308;SDS011;67566;42.022;21.356;2023-05-16T10:04:05;21.02;;;15.88;;
78308;SDS011;67566;42.022;21.356;2023-05-16T10:06:31;21.80;;;14.52;;
78308;SDS011;67566;42.022;21.356;2023-05-16T10:08:56;15.88;;;11.63;;
78308;SDS011;67566;42.022;21.356;2023-05-16T10:11:23;19.50;;;12.00;;
78308;SDS011;67566;42.022;21.356;2023-05-16T10:13:49;16.05;;;11.25;;
78308;SDS011;67566;42.022;21.356;2023-05-16T10:16:17;19.98;;;12.13;;
78308;SDS011;67566;42.022;21.356;2023-05-16T10:18:45;13.80;;;11.13;;
78308;SDS011;67566;42.022;21.356;2023-05-16T10:21:14;19.17;;;11.50;;
78308;SDS011;67566;42.022;21.356;2023-05-16T10:23:42;14.75;;;10.35;;
78308;SDS011;67566;42.022;21.356;2023-05-16T10:26:11;17.35;;;11.27;;
78308;SDS011;67566;42.022;21.356;2023-05-16T10:28:40;23.80;;;14.00;;
78308;SDS011;67566;42.022;21.356;2023-05-16T10:31:06;19.17;;;12.40;;
78308;SDS011;67566;42.022;21.356;2023-05-16T10:33:34;23.25;;;16.05;;
78308;SDS011;67566;42.022;21.356;2023-05-16T10:36:00;23.83;;;16.40;;
78308;SDS011;67566;42.022;21.356;2023-05-16T10:38:27;24.33;;;13.93;;
78308;SDS011;67566;42.022;21.356;2023-05-16T10:40:53;16.35;;;11.98;;
78308;SDS011;67566;42.022;21.356;2023-05-16T10:43:24;20.25;;;11.80;;
78308;SDS011;67566;42.022;21.356;2023-05-16T10:46:02;21.23;;;12.07;;
78308;SDS011;67566;42.022;21.356;2023-05-16T10:48:30;16.67;;;10.93;;
78308;SDS011;67566;42.022;21.356;2023-05-16T10:51:03;17.33;;;10.95;;
78308;SDS011;67566;42.022;21.356;2023-05-16T10:53:50;19.42;;;12.82;;
78308;SDS011;67566;42.022;21.356;2023-05-16T10:56:25;15.25;;;11.40;;
78308;SDS011;67566;42.022;21.356;2023-05-16T10:58:52;19.15;;;12.15;;
78308;SDS011;67566;42.022;21.356;2023-05-16T11:01:32;16.10;;;10.90;;
78308;SDS011;67566;42.022;21.356;2023-05-16T11:04:05;18.63;;;13.55;;
78308;SDS011;67566;42.022;21.356;2023-05-16T11:09:05;15.93;;;12.82;;
78308;SDS011;67566;42.022;21.356;2023-05-16T11:11:45;16.85;;;12.43;;
78308;SDS011;67566;42.022;21.356;2023-05-16T11:14:25;19.52;;;12.65;;
78308;SDS011;67566;42.022;21.356;2023-05-16T11:16:51;22.42;;;13.00;;
78308;SDS011;67566;42.022;21.356;2023-05-16T11:19:33;19.45;;;12.88;;
78308;SDS011;67566;42.022;21.356;2023-05-16T11:24:48;17.73;;;12.32;;
78308;SDS011;67566;42.022;21.356;2023-05-16T11:27:19;24.42;;;13.50;;
78308;SDS011;67566;42.022;21.356;2023-05-16T11:29:48;17.08;;;13.68;;
78308;SDS011;67566;42.022;21.356;2023-05-16T11:32:14;21.95;;;13.25;;
78308;SDS011;67566;42.022;21.356;2023-05-16T11:34:45;17.13;;;12.48;;
78308;SDS011;67566;42.022;21.356;2023-05-16T11:37:11;18.90;;;10.98;;
78308;SDS011;67566;42.022;21.356;2023-05-16T11:39:37;17.55;;;12.50;;
78308;SDS011;67566;42.022;21.356;2023-05-16T11:42:02;17.23;;;12.02;;
78308;SDS011;67566;42.022;21.356;2023-05-16T11:44:28;15.02;;;10.25;;
78308;SDS011;67566;42.022;21.356;2023-05-16T11:46:53;18.52;;;12.27;;
78308;SDS011;67566;42.022;21.356;2023-05-16T11:49:19;21.27;;;16.92;;
78308;SDS011;67566;42.022;21.356;2023-05-16T11:51:45;19.58;;;13.13;;
78308;SDS011;67566;42.022;21.356;2023-05-16T11:54:11;23.13;;;15.48;;
78308;SDS011;67566;42.022;21.356;2023-05-16T11:56:38;23.70;;;15.43;;
78308;SDS011;67566;42.022;21.356;2023-05-16T11:59:07;23.27;;;16.77;;
78308;SDS011;67566;42.022;21.356;2023-05-16T12:01:33;23.38;;;15.43;;
78308;SDS011;67566;42.022;21.356;2023-05-16T12:04:01;17.95;;;12.40;;
78308;SDS011;67566;42.022;21.356;2023-05-16T12:06:28;20.60;;;12.40;;
78308;SDS011;67566;42.022;21.356;2023-05-16T12:08:55;18.08;;;12.25;;
78308;SDS011;67566;42.022;21.356;2023-05-16T12:11:22;17.20;;;11.10;;
78308;SDS011;67566;42.022;21.356;2023-05-16T12:13:48;26.58;;;13.30;;
78308;SDS011;67566;42.022;21.356;2023-05-16T12:16:14;17.95;;;11.60;;
78308;SDS011;67566;42.022;21.356;2023-05-16T12:18:40;14.98;;;10.10;;
78308;SDS011;67566;42.022;21.356;2023-05-16T12:21:06;16.65;;;10.48;;
78308;SDS011;67566;42.022;21.356;2023-05-16T12:23:32;15.65;;;10.02;;
78308;SDS011;67566;42.022;21.356;2023-05-16T12:25:58;19.73;;;10.38;;
78308;SDS011;67566;42.022;21.356;2023-05-16T12:28:31;15.65;;;10.23;;
78308;SDS011;67566;42.022;21.356;2023-05-16T12:31:02;18.13;;;11.38;;
78308;SDS011;67566;42.022;21.356;2023-05-16T12:33:27;15.75;;;10.63;;
78308;SDS011;67566;42.022;21.356;2023-05-16T12:35:53;14.55;;;10.15;;
78308;SDS011;67566;42.022;21.356;2023-05-16T12:38:19;12.00;;;8.30;;
78308;SDS011;67566;42.022;21.356;2023-05-16T12:40:45;17.10;;;10.25;;
78308;SDS011;67566;42.022;21.356;2023-05-16T12:43:21;17.85;;;10.90;;
78308;SDS011;67566;42.022;21.356;2023-05-16T12:45:50;20.20;;;11.23;;
78308;SDS011;67566;42.022;21.356;2023-05-16T12:48:17;16.02;;;10.52;;
78308;SDS011;67566;42.022;21.356;2023-05-16T12:50:43;19.38;;;10.52;;
78308;SDS011;67566;42.022;21.356;2023-05-16T12:53:13;23.00;;;12.10;;
78308;SDS011;67566;42.022;21.356;2023-05-16T12:55:39;17.38;;;11.10;;
78308;SDS011;67566;42.022;21.356;2023-05-16T12:58:05;16.75;;;10.77;;
78308;SDS011;67566;42.022;21.356;2023-05-16T13:00:31;19.67;;;11.98;;
78308;SDS011;67566;42.022;21.356;2023-05-16T13:02:57;20.63;;;10.60;;
78308;SDS011;67566;42.022;21.356;2023-05-16T13:05:22;14.95;;;10.52;;
78308;SDS011;67566;42.022;21.356;2023-05-16T13:07:48;15.82;;;9.90;;
78308;SDS011;67566;42.022;21.356;2023-05-16T13:10:15;13.82;;;10.57;;
78308;SDS011;67566;42.022;21.356;2023-05-16T13:12:41;21.45;;;12.40;;
78308;SDS011;67566;42.022;21.356;2023-05-16T13:15:07;13.65;;;9.57;;
78308;SDS011;67566;42.022;21.356;2023-05-16T13:17:34;12.98;;;9.10;;
78308;SDS011;67566;42.022;21.356;2023-05-16T13:20:00;16.08;;;8.65;;
78308;SDS011;67566;42.022;21.356;2023-05-16T13:22:26;17.85;;;10.43;;
78308;SDS011;67566;42.022;21.356;2023-05-16T13:24:52;13.57;;;8.77;;
78308;SDS011;67566;42.022;21.356;2023-05-16T13:27:17;15.82;;;8.38;;
78308;SDS011;67566;42.022;21.356;2023-05-16T13:29:43;16.83;;;9.52;;
78308;SDS011;67566;42.022;21.356;2023-05-16T13:32:09;13.82;;;9.50;;
78308;SDS011;67566;42.022;21.356;2023-05-16T13:34:34;12.13;;;9.15;;
78308;SDS011;67566;42.022;21.356;2023-05-16T13:37:00;15.27;;;9.10;;
78308;SDS011;67566;42.022;21.356;2023-05-16T13:39:25;13.38;;;7.82;;
78308;SDS011;67566;42.022;21.356;2023-05-16T13:41:51;18.40;;;9.15;;
78308;SDS011;67566;42.022;21.356;2023-05-16T13:44:17;10.57;;;7.95;;
78308;SDS011;67566;42.022;21.356;2023-05-16T13:46:43;15.50;;;9.30;;
78308;SDS011;67566;42.022;21.356;2023-05-16T13:49:09;15.00;;;8.82;;
78308;SDS011;67566;42.022;21.356;2023-05-16T13:51:34;13.70;;;8.93;;
78308;SDS011;67566;42.022;21.356;2023-05-16T13:54:00;13.82;;;8.65;;
78308;SDS011;67566;42.022;21.356;2023-05-16T13:56:25;12.98;;;8.60;;
78308;SDS011;67566;42.022;21.356;2023-05-16T13:58:51;11.98;;;8.25;;
78308;SDS011;67566;42.022;21.356;2023-05-16T14:01:16;13.95;;;9.05;;
78308;SDS011;67566;42.022;21.356;2023-05-16T14:03:42;18.48;;;9.55;;
78308;SDS011;67566;42.022;21.356;2023-05-16T14:06:07;17.40;;;9.07;;
78308;SDS011;67566;42.022;21.356;2023-05-16T14:08:34;13.13;;;7.78;;
78308;SDS011;67566;42.022;21.356;2023-05-16T14:10:59;12.13;;;8.88;;
78308;SDS011;67566;42.022;21.356;2023-05-16T14:13:25;13.50;;;8.70;;
78308;SDS011;67566;42.022;21.356;2023-05-16T14:15:50;14.80;;;8.75;;
78308;SDS011;67566;42.022;21.356;2023-05-16T14:18:16;12.77;;;7.38;;
78308;SDS011;67566;42.022;21.356;2023-05-16T14:20:41;11.07;;;7.05;;
78308;SDS011;67566;42.022;21.356;2023-05-16T14:23:07;57.15;;;13.38;;
78308;SDS011;67566;42.022;21.356;2023-05-16T14:25:32;10.30;;;6.32;;
78308;SDS011;67566;42.022;21.356;2023-05-16T14:27:58;11.13;;;6.95;;
78308;SDS011;67566;42.022;21.356;2023-05-16T14:30:23;14.77;;;7.30;;
78308;SDS011;67566;42.022;21.356;2023-05-16T14:32:50;14.07;;;6.70;;
78308;SDS011;67566;42.022;21.356;2023-05-16T14:35:15;10.10;;;7.00;;